createdAt,value
2022-09-16T00:00:17.000Z,0.70
2022-09-16T00:02:43.367Z,0.60
2022-09-16T00:05:09.795Z,0.55
2022-09-16T00:07:36.115Z,0.65
2022-09-16T00:10:02.882Z,0.80
2022-09-16T00:12:29.153Z,0.52
2022-09-16T00:14:55.471Z,0.68
2022-09-16T00:17:22.269Z,0.40
2022-09-16T00:19:49.431Z,0.40
2022-09-16T00:22:15.989Z,0.50
2022-09-16T00:24:42.478Z,0.50
2022-09-16T00:27:08.766Z,0.30
2022-09-16T00:29:35.152Z,0.40
2022-09-16T00:32:02.077Z,0.50
2022-09-16T00:34:28.510Z,0.70
2022-09-16T00:36:54.812Z,0.40
2022-09-16T00:39:21.144Z,0.40
2022-09-16T00:41:47.495Z,0.50
2022-09-16T00:44:32.638Z,0.47
2022-09-16T00:46:59.021Z,0.50
2022-09-16T00:49:26.927Z,0.30
2022-09-16T00:51:54.785Z,0.30
2022-09-16T00:54:21.611Z,0.60
2022-09-16T00:56:49.648Z,0.50
2022-09-16T00:59:21.914Z,0.47
2022-09-16T01:01:48.731Z,0.43
2022-09-16T01:04:18.100Z,0.30
2022-09-16T01:06:44.651Z,0.30
2022-09-16T01:09:10.943Z,0.55
2022-09-16T01:11:37.240Z,0.50
2022-09-16T01:14:22.781Z,0.45
2022-09-16T01:16:58.241Z,0.40
2022-09-16T01:19:34.462Z,0.40
2022-09-16T01:22:16.197Z,0.50
2022-09-16T01:24:50.568Z,0.30
2022-09-16T01:27:35.493Z,0.32
2022-09-16T01:30:17.233Z,0.35
2022-09-16T01:32:46.353Z,0.30
2022-09-16T01:35:31.386Z,0.30
2022-09-16T01:38:16.616Z,0.50
2022-09-16T01:41:07.130Z,0.60
2022-09-16T01:43:46.304Z,0.57
2022-09-16T01:46:24.357Z,0.35
2022-09-16T01:48:53.790Z,0.20
2022-09-16T01:51:23.071Z,0.82
2022-09-16T01:53:54.664Z,0.70
2022-09-16T01:56:24.128Z,0.50
2022-09-16T01:58:57.921Z,0.63
2022-09-16T02:01:36.139Z,0.50
2022-09-16T02:04:06.793Z,0.60
2022-09-16T02:06:33.869Z,0.65
2022-09-16T02:09:03.051Z,0.38
2022-09-16T02:11:29.786Z,0.40
2022-09-16T02:14:09.054Z,0.38
2022-09-16T02:16:36.346Z,0.40
2022-09-16T02:19:06.654Z,0.40
2022-09-16T02:21:34.140Z,0.68
2022-09-16T02:24:02.320Z,0.50
2022-09-16T02:26:33.236Z,0.60
2022-09-16T02:29:00.565Z,0.52
2022-09-16T02:31:30.295Z,0.50
2022-09-16T02:33:59.752Z,0.70
2022-09-16T02:36:26.866Z,0.60
2022-09-16T02:39:19.543Z,0.40
2022-09-16T02:41:46.411Z,0.55
2022-09-16T02:44:13.039Z,0.85
2022-09-16T02:46:42.223Z,0.65
2022-09-16T02:49:22.857Z,1.13
2022-09-16T02:51:58.194Z,0.60
2022-09-16T02:54:28.691Z,0.60
2022-09-16T02:56:56.330Z,0.60
2022-09-16T02:59:23.393Z,0.60
2022-09-16T03:01:49.750Z,0.50
2022-09-16T03:04:17.340Z,0.50
2022-09-16T03:06:44.273Z,0.43
2022-09-16T03:09:12.276Z,0.40
2022-09-16T03:11:57.472Z,0.40
2022-09-16T03:14:42.696Z,0.50
2022-09-16T03:17:14.976Z,0.40
2022-09-16T03:20:00.302Z,0.40
2022-09-16T03:22:33.409Z,0.45
2022-09-16T03:24:59.896Z,0.60
2022-09-16T03:27:31.817Z,0.45
2022-09-16T03:30:06.119Z,0.70
2022-09-16T03:32:35.851Z,0.40
2022-09-16T03:35:13.944Z,0.30
2022-09-16T03:37:40.935Z,0.35
2022-09-16T03:40:12.007Z,0.60
2022-09-16T03:42:42.809Z,0.53
2022-09-16T03:45:13.305Z,0.73
2022-09-16T03:47:39.699Z,0.50
2022-09-16T03:50:06.319Z,0.35
2022-09-16T03:52:32.606Z,0.50
2022-09-16T03:54:58.888Z,0.63
2022-09-16T03:57:25.928Z,0.60
2022-09-16T03:59:52.212Z,0.60
2022-09-16T04:02:18.547Z,0.80
2022-09-16T04:04:45.075Z,0.85
2022-09-16T04:07:11.383Z,0.70
2022-09-16T04:09:37.678Z,0.50
2022-09-16T04:12:04.508Z,0.77
2022-09-16T04:14:30.798Z,0.50
2022-09-16T04:16:57.239Z,0.77
2022-09-16T04:19:24.213Z,0.70
2022-09-16T04:21:50.499Z,0.70
2022-09-16T04:24:17.529Z,1.00
2022-09-16T04:26:44.259Z,0.70
2022-09-16T04:29:10.691Z,0.90
2022-09-16T04:31:37.096Z,0.60
2022-09-16T04:34:04.298Z,0.80
2022-09-16T04:36:30.812Z,0.60
2022-09-16T04:38:57.142Z,0.77
2022-09-16T04:41:24.501Z,0.85
2022-09-16T04:43:52.643Z,1.00
2022-09-16T04:46:19.549Z,0.80
2022-09-16T04:48:49.498Z,0.70
2022-09-16T04:51:16.205Z,0.40
2022-09-16T04:53:45.905Z,0.65
2022-09-16T04:56:16.484Z,0.55
2022-09-16T04:58:43.647Z,0.70
2022-09-16T05:01:14.687Z,0.65
2022-09-16T05:03:45.762Z,0.60
2022-09-16T05:06:32.181Z,0.50
2022-09-16T05:09:00.328Z,0.45
2022-09-16T05:11:31.184Z,1.00
2022-09-16T05:14:01.797Z,0.40
2022-09-16T05:16:28.576Z,0.60
2022-09-16T05:18:56.145Z,0.50
2022-09-16T05:21:23.356Z,0.70
2022-09-16T05:23:50.249Z,0.90
2022-09-16T05:26:21.411Z,0.40
2022-09-16T05:28:48.212Z,0.30
2022-09-16T05:31:15.537Z,0.50
2022-09-16T05:33:42.806Z,0.65
2022-09-16T05:36:13.334Z,0.70
2022-09-16T05:38:39.615Z,0.98
2022-09-16T05:41:06.486Z,1.27
2022-09-16T05:43:33.223Z,0.65
2022-09-16T05:45:59.554Z,0.63
2022-09-16T05:48:26.160Z,0.80
2022-09-16T05:50:56.765Z,0.57
2022-09-16T05:53:23.880Z,0.80
2022-09-16T05:55:57.482Z,0.60
2022-09-16T05:58:24.250Z,0.60
2022-09-16T06:00:50.836Z,0.40
2022-09-16T06:03:17.284Z,0.75
2022-09-16T06:05:45.820Z,0.50
2022-09-16T06:08:12.368Z,0.60
2022-09-16T06:10:39.710Z,0.88
2022-09-16T06:13:06.084Z,1.05
2022-09-16T06:15:32.540Z,0.70
2022-09-16T06:18:02.923Z,0.70
2022-09-16T06:20:31.915Z,0.77
2022-09-16T06:22:58.213Z,0.73
2022-09-16T06:25:24.667Z,0.82
2022-09-16T06:27:50.968Z,0.88
2022-09-16T06:30:17.333Z,0.68
2022-09-16T06:32:43.757Z,0.73
2022-09-16T06:35:10.042Z,0.60
2022-09-16T06:37:36.340Z,0.80
2022-09-16T06:40:02.963Z,0.80
2022-09-16T06:42:29.316Z,0.60
2022-09-16T06:44:55.590Z,0.32
2022-09-16T06:47:22.004Z,0.75
2022-09-16T06:49:48.281Z,1.10
2022-09-16T06:52:14.659Z,0.88
2022-09-16T06:54:41.097Z,0.60
2022-09-16T06:57:12.007Z,0.50
2022-09-16T06:59:38.725Z,0.60
2022-09-16T07:02:05.278Z,0.70
2022-09-16T07:04:31.652Z,0.98
2022-09-16T07:07:09.122Z,0.52
2022-09-16T07:09:36.231Z,0.75
2022-09-16T07:12:02.673Z,0.80
2022-09-16T07:14:29.351Z,0.80
2022-09-16T07:16:55.816Z,0.70
2022-09-16T07:19:22.207Z,0.90
2022-09-16T07:21:48.591Z,1.10
2022-09-16T07:24:15.193Z,0.80
2022-09-16T07:26:42.101Z,1.02
2022-09-16T07:29:10.628Z,0.90
2022-09-16T07:31:37.840Z,0.80
2022-09-16T07:34:05.487Z,0.60
2022-09-16T07:36:33.647Z,0.60
2022-09-16T07:39:00.098Z,0.60
2022-09-16T07:41:27.570Z,0.50
2022-09-16T07:43:54.744Z,0.60
2022-09-16T07:46:22.006Z,0.40
2022-09-16T07:48:49.029Z,0.70
2022-09-16T07:51:17.002Z,0.55
2022-09-16T07:53:44.317Z,0.70
2022-09-16T07:56:20.283Z,0.77
2022-09-16T07:58:47.242Z,0.40
2022-09-16T08:01:18.202Z,0.63
2022-09-16T08:03:45.315Z,0.50
2022-09-16T08:06:16.070Z,0.30
2022-09-16T08:08:42.690Z,0.50
2022-09-16T08:11:09.466Z,0.40
2022-09-16T08:13:36.841Z,0.60
2022-09-16T08:16:04.857Z,0.70
2022-09-16T08:18:31.299Z,0.50
2022-09-16T08:20:59.413Z,0.80
2022-09-16T08:23:25.691Z,0.60
2022-09-16T08:25:58.945Z,0.73
2022-09-16T08:28:25.779Z,0.50
2022-09-16T08:30:53.342Z,0.40
2022-09-16T08:33:23.033Z,0.63
2022-09-16T08:35:58.201Z,0.50
2022-09-16T08:38:24.628Z,0.52
2022-09-16T08:40:52.761Z,0.38
2022-09-16T08:43:27.155Z,0.50
2022-09-16T08:46:09.545Z,0.35
2022-09-16T08:48:43.780Z,0.65
2022-09-16T08:51:13.595Z,0.30
2022-09-16T08:53:43.579Z,0.85
2022-09-16T08:56:15.754Z,0.50
2022-09-16T08:58:46.654Z,0.45
2022-09-16T09:01:24.760Z,0.57
2022-09-16T09:03:51.271Z,0.85
2022-09-16T09:06:23.877Z,0.80
2022-09-16T09:08:51.240Z,0.55
2022-09-16T09:11:17.590Z,0.40
2022-09-16T09:13:53.255Z,0.50
2022-09-16T09:16:22.505Z,0.77
2022-09-16T09:19:00.925Z,1.17
2022-09-16T09:21:53.401Z,0.50
2022-09-16T09:24:22.549Z,0.43
2022-09-16T09:26:50.079Z,0.68
2022-09-16T09:29:29.712Z,0.70
2022-09-16T09:32:14.722Z,0.60
2022-09-16T09:34:44.153Z,0.70
2022-09-16T09:37:14.434Z,0.47
2022-09-16T09:40:01.071Z,0.60
2022-09-16T09:42:27.341Z,1.10
2022-09-16T09:44:58.514Z,0.77
2022-09-16T09:47:32.657Z,0.70
2022-09-16T09:50:02.751Z,0.90
2022-09-16T09:52:33.398Z,1.08
2022-09-16T09:55:04.190Z,0.68
2022-09-16T09:57:33.606Z,0.60
2022-09-16T10:00:13.106Z,0.50
2022-09-16T10:02:40.308Z,0.70
2022-09-16T10:05:07.760Z,0.45
2022-09-16T10:07:35.887Z,0.77
2022-09-16T10:10:04.587Z,0.55
2022-09-16T10:12:32.266Z,0.60
2022-09-16T10:14:59.138Z,0.70
2022-09-16T10:17:26.888Z,0.70
2022-09-16T10:19:56.548Z,0.73
2022-09-16T10:22:27.996Z,0.77
2022-09-16T10:24:55.533Z,0.50
2022-09-16T10:27:34.218Z,0.65
2022-09-16T10:30:03.391Z,0.80
2022-09-16T10:32:29.723Z,0.90
2022-09-16T10:34:56.420Z,0.90
2022-09-16T10:37:23.132Z,0.80
2022-09-16T10:39:54.045Z,0.75
2022-09-16T10:42:24.692Z,0.70
2022-09-16T10:44:52.642Z,0.60
2022-09-16T10:47:23.033Z,0.65
2022-09-16T10:49:51.386Z,0.43
2022-09-16T10:52:18.904Z,0.50
2022-09-16T10:54:45.354Z,0.47
2022-09-16T10:57:22.929Z,0.40
2022-09-16T11:00:18.659Z,0.50
2022-09-16T11:03:03.318Z,0.60
2022-09-16T11:05:48.212Z,0.38
2022-09-16T11:08:14.588Z,0.50
2022-09-16T11:10:40.996Z,0.77
2022-09-16T11:13:07.285Z,0.65
2022-09-16T11:15:36.841Z,0.60
2022-09-16T11:18:10.300Z,0.70
2022-09-16T11:20:44.774Z,0.75
2022-09-16T11:23:14.254Z,0.70
2022-09-16T11:25:52.970Z,0.63
2022-09-16T11:28:19.251Z,0.40
2022-09-16T11:30:55.731Z,0.60
2022-09-16T11:33:32.635Z,0.57
2022-09-16T11:36:37.497Z,0.43
2022-09-16T11:39:03.810Z,0.30
2022-09-16T11:41:32.836Z,0.40
2022-09-16T11:44:11.764Z,0.32
2022-09-16T11:46:38.098Z,0.20
2022-09-16T11:49:22.384Z,0.20
2022-09-16T11:52:08.192Z,0.20
2022-09-16T11:54:53.111Z,0.30
2022-09-16T11:57:22.621Z,0.20
2022-09-16T11:59:55.462Z,0.30
2022-09-16T12:02:27.282Z,0.40
2022-09-16T12:07:25.730Z,0.20
2022-09-16T12:09:55.565Z,0.20
2022-09-16T12:12:44.377Z,0.20
2022-09-16T12:15:17.776Z,0.30
2022-09-16T12:17:49.568Z,0.30
2022-09-16T12:20:17.221Z,0.30
2022-09-16T12:22:46.487Z,0.22
2022-09-16T12:25:16.040Z,0.50
2022-09-16T12:28:01.409Z,0.28
2022-09-16T12:30:30.102Z,0.30
2022-09-16T12:33:25.865Z,0.30
2022-09-16T12:36:04.779Z,0.25
2022-09-16T12:38:31.360Z,0.30
2022-09-16T12:41:00.491Z,0.10
2022-09-16T12:43:37.924Z,0.22
2022-09-16T12:46:22.844Z,0.30
2022-09-16T12:49:14.416Z,0.10
2022-09-16T12:51:56.033Z,0.20
2022-09-16T12:54:28.358Z,0.30
2022-09-16T12:57:12.889Z,0.20
2022-09-16T12:59:42.225Z,0.20
2022-09-16T13:02:11.640Z,0.30
2022-09-16T13:04:40.142Z,0.25
2022-09-16T13:07:07.170Z,0.20
2022-09-16T13:09:40.626Z,0.30
2022-09-16T13:15:06.566Z,0.30
2022-09-16T13:17:37.016Z,0.30
2022-09-16T13:20:07.301Z,0.10
2022-09-16T13:22:46.200Z,0.30
2022-09-16T13:25:21.584Z,0.30
2022-09-16T13:28:06.999Z,0.40
2022-09-16T13:30:39.245Z,0.20
2022-09-16T13:33:08.593Z,0.30
2022-09-16T13:35:39.196Z,0.28
2022-09-16T13:38:14.717Z,0.20
2022-09-16T13:40:51.956Z,0.32
2022-09-16T13:43:28.194Z,0.40
2022-09-16T13:46:02.609Z,0.45
2022-09-16T13:48:30.072Z,0.30
2022-09-16T13:51:00.225Z,0.30
2022-09-16T13:53:26.500Z,0.22
2022-09-16T13:55:55.049Z,0.20
2022-09-16T13:58:30.812Z,0.60
2022-09-16T14:01:16.817Z,0.40
2022-09-16T14:03:53.550Z,0.30
2022-09-16T14:06:31.938Z,0.10
2022-09-16T14:09:04.014Z,0.20
2022-09-16T14:11:30.986Z,0.20
2022-09-16T14:14:05.903Z,0.20
2022-09-16T14:16:34.073Z,0.10
2022-09-16T14:19:06.419Z,0.20
2022-09-16T14:21:32.979Z,0.20
2022-09-16T14:24:28.755Z,0.10
2022-09-16T14:26:56.284Z,0.20
2022-09-16T14:29:23.856Z,0.20
2022-09-16T14:31:52.605Z,0.20
2022-09-16T14:34:27.716Z,0.60
2022-09-16T14:36:54.326Z,0.30
2022-09-16T14:39:22.333Z,0.20
2022-09-16T14:41:49.956Z,0.20
2022-09-16T14:44:19.170Z,0.30
2022-09-16T14:46:51.073Z,0.63
2022-09-16T14:49:18.558Z,0.30
2022-09-16T14:51:50.710Z,0.85
2022-09-16T14:54:18.448Z,0.35
2022-09-16T14:57:14.216Z,0.20
2022-09-16T14:59:41.989Z,0.30
2022-09-16T15:02:14.404Z,0.35
2022-09-16T15:04:43.026Z,0.30
2022-09-16T15:07:56.296Z,0.25
2022-09-16T15:10:39.678Z,0.20
2022-09-16T15:13:16.653Z,0.45
2022-09-16T15:15:47.693Z,0.30
2022-09-16T15:18:26.970Z,0.40
2022-09-16T15:20:56.105Z,0.20
2022-09-16T15:23:24.095Z,0.30
2022-09-16T15:25:55.513Z,0.30
2022-09-16T15:28:22.558Z,0.30
2022-09-16T15:30:50.325Z,0.30
2022-09-16T15:33:42.976Z,0.20
2022-09-16T15:36:27.753Z,0.20
2022-09-16T15:38:57.562Z,0.20
2022-09-16T15:41:24.056Z,0.40
2022-09-16T15:43:50.408Z,0.20
2022-09-16T15:46:22.096Z,0.20
2022-09-16T15:48:58.333Z,0.20
2022-09-16T15:51:29.378Z,0.30
2022-09-16T15:53:57.846Z,0.22
2022-09-16T15:56:27.747Z,0.20
2022-09-16T15:59:06.501Z,0.20
2022-09-16T16:01:39.098Z,0.20
2022-09-16T16:04:07.655Z,0.40
2022-09-16T16:06:45.996Z,0.22
2022-09-16T16:09:27.718Z,0.13
2022-09-16T16:11:58.066Z,0.40
2022-09-16T16:14:25.087Z,0.30
2022-09-16T16:17:11.843Z,0.40
2022-09-16T16:19:39.072Z,0.10
2022-09-16T16:22:06.345Z,0.30
2022-09-16T16:24:33.492Z,0.20
2022-09-16T16:27:00.164Z,0.47
2022-09-16T16:29:26.477Z,0.28
2022-09-16T16:31:59.669Z,0.10
2022-09-16T16:34:26.061Z,0.30
2022-09-16T16:36:52.544Z,0.20
2022-09-16T16:39:18.956Z,0.10
2022-09-16T16:41:45.243Z,0.20
2022-09-16T16:44:11.682Z,0.10
2022-09-16T16:46:38.014Z,0.30
2022-09-16T16:49:04.900Z,0.20
2022-09-16T16:51:31.246Z,0.20
2022-09-16T16:53:57.592Z,0.20
2022-09-16T16:56:23.942Z,0.30
2022-09-16T16:58:50.249Z,0.20
2022-09-16T17:01:17.429Z,0.20
2022-09-16T17:03:49.716Z,0.13
2022-09-16T17:06:16.814Z,0.25
2022-09-16T17:08:43.207Z,0.20
2022-09-16T17:11:10.410Z,0.20
2022-09-16T17:13:37.952Z,0.38
2022-09-16T17:16:04.587Z,0.15
2022-09-16T17:18:31.117Z,0.30
2022-09-16T17:21:02.410Z,0.20
2022-09-16T17:23:28.695Z,0.10
2022-09-16T17:25:55.015Z,0.30
2022-09-16T17:28:21.434Z,0.20
2022-09-16T17:30:47.764Z,0.30
2022-09-16T17:33:14.114Z,0.20
2022-09-16T17:35:40.450Z,0.22
2022-09-16T17:38:07.252Z,0.28
2022-09-16T17:40:34.228Z,0.30
2022-09-16T17:43:00.678Z,0.30
2022-09-16T17:45:27.114Z,0.30
2022-09-16T17:47:53.540Z,0.38
2022-09-16T17:50:23.016Z,0.40
2022-09-16T17:52:49.512Z,0.30
2022-09-16T17:55:15.876Z,0.20
2022-09-16T17:57:42.246Z,0.20
2022-09-16T18:00:08.941Z,0.20
2022-09-16T18:02:35.859Z,0.30
2022-09-16T18:05:02.717Z,0.30
2022-09-16T18:07:29.081Z,0.30
2022-09-16T18:09:55.368Z,0.40
2022-09-16T18:12:21.701Z,0.30
2022-09-16T18:14:47.993Z,0.60
2022-09-16T18:17:14.384Z,0.20
2022-09-16T18:19:40.886Z,0.20
2022-09-16T18:22:07.162Z,0.38
2022-09-16T18:24:33.450Z,0.20
2022-09-16T18:27:02.398Z,0.20
2022-09-16T18:29:30.110Z,0.40
2022-09-16T18:31:56.434Z,0.25
2022-09-16T18:34:23.789Z,0.20
2022-09-16T18:36:50.226Z,0.30
2022-09-16T18:39:16.930Z,0.20
2022-09-16T18:41:44.871Z,0.20
2022-09-16T18:44:15.767Z,0.30
2022-09-16T18:46:42.115Z,0.20
2022-09-16T18:49:10.235Z,0.30
2022-09-16T18:51:37.732Z,0.50
2022-09-16T18:54:05.160Z,0.95
2022-09-16T18:56:32.880Z,0.30
2022-09-16T18:59:20.458Z,0.30
2022-09-16T19:01:50.505Z,0.13
2022-09-16T19:04:18.268Z,0.10
2022-09-16T19:06:45.852Z,0.13
2022-09-16T19:09:13.664Z,0.20
2022-09-16T19:11:40.252Z,0.20
2022-09-16T19:14:09.405Z,0.40
2022-09-16T19:16:36.389Z,0.20
2022-09-16T19:19:05.402Z,0.30
2022-09-16T19:21:32.123Z,0.20
2022-09-16T19:23:59.982Z,0.22
2022-09-16T19:26:27.097Z,0.35
2022-09-16T19:28:53.368Z,0.30
2022-09-16T19:31:19.755Z,0.20
2022-09-16T19:33:46.028Z,0.10
2022-09-16T19:36:16.703Z,0.60
2022-09-16T19:38:43.380Z,0.20
2022-09-16T19:41:10.164Z,0.40
2022-09-16T19:43:36.970Z,0.43
2022-09-16T19:46:21.517Z,0.40
2022-09-16T19:48:48.489Z,0.30
2022-09-16T19:51:16.173Z,0.30
2022-09-16T19:53:43.374Z,0.20
2022-09-16T19:56:10.902Z,0.40
2022-09-16T19:58:37.786Z,0.38
2022-09-16T20:01:08.474Z,0.38
2022-09-16T20:03:36.581Z,0.55
2022-09-16T20:06:10.216Z,0.30
2022-09-16T20:08:37.258Z,0.47
2022-09-16T20:11:08.657Z,0.30
2022-09-16T20:13:35.802Z,0.30
2022-09-16T20:16:02.812Z,0.60
2022-09-16T20:18:30.253Z,0.40
2022-09-16T20:21:19.909Z,0.50
2022-09-16T20:23:46.866Z,0.40
2022-09-16T20:26:15.003Z,0.40
2022-09-16T20:28:42.810Z,0.30
2022-09-16T20:31:12.881Z,0.40
2022-09-16T20:33:40.013Z,0.47
2022-09-16T20:36:07.808Z,0.40
2022-09-16T20:38:34.680Z,0.40
2022-09-16T20:41:08.346Z,0.35
2022-09-16T20:43:35.062Z,0.40
2022-09-16T20:46:09.503Z,0.47
2022-09-16T20:48:36.137Z,0.50
2022-09-16T20:51:06.648Z,0.30
2022-09-16T20:53:36.176Z,0.28
2022-09-16T20:56:03.479Z,0.30
2022-09-16T20:58:29.808Z,0.52
2022-09-16T21:01:02.191Z,0.30
2022-09-16T21:03:29.050Z,0.50
2022-09-16T21:05:59.736Z,0.70
2022-09-16T21:08:27.962Z,0.40
2022-09-16T21:10:57.514Z,0.60
2022-09-16T21:13:24.979Z,0.40
2022-09-16T21:15:55.157Z,0.70
2022-09-16T21:18:22.474Z,0.40
2022-09-16T21:20:49.284Z,0.63
2022-09-16T21:23:15.706Z,0.55
2022-09-16T21:25:41.986Z,0.50
2022-09-16T21:28:08.651Z,0.30
2022-09-16T21:30:35.020Z,0.30
2022-09-16T21:33:01.330Z,0.20
2022-09-16T21:35:27.605Z,0.40
2022-09-16T21:37:54.294Z,0.60
2022-09-16T21:40:23.999Z,0.60
2022-09-16T21:42:50.310Z,0.50
2022-09-16T21:45:16.694Z,0.50
2022-09-16T21:47:44.230Z,0.68
2022-09-16T21:50:10.628Z,0.40
2022-09-16T21:52:37.008Z,0.40
2022-09-16T21:55:03.419Z,0.40
2022-09-16T21:57:29.706Z,0.40
2022-09-16T21:59:56.035Z,0.65
2022-09-16T22:02:22.645Z,0.50
2022-09-16T22:04:49.216Z,0.50
2022-09-16T22:07:15.630Z,0.70
2022-09-16T22:09:41.922Z,0.55
2022-09-16T22:12:08.219Z,0.50
2022-09-16T22:14:34.664Z,0.32
2022-09-16T22:17:01.002Z,0.70
2022-09-16T22:19:27.294Z,0.30
2022-09-16T22:21:53.646Z,0.70
2022-09-16T22:24:21.294Z,0.40
2022-09-16T22:26:48.534Z,0.40
2022-09-16T22:29:14.962Z,0.30
2022-09-16T22:31:41.868Z,0.30
2022-09-16T22:34:08.796Z,0.50
2022-09-16T22:36:35.961Z,0.50
2022-09-16T22:39:05.170Z,0.40
2022-09-16T22:41:31.796Z,0.50
2022-09-16T22:43:58.702Z,0.45
2022-09-16T22:46:27.076Z,0.70
2022-09-16T22:48:54.960Z,0.50
2022-09-16T22:51:21.698Z,0.30
2022-09-16T22:53:48.396Z,0.57
2022-09-16T22:56:19.251Z,0.73
2022-09-16T22:58:46.210Z,0.50
2022-09-16T23:01:13.962Z,0.77
2022-09-16T23:03:40.621Z,0.70
2022-09-16T23:06:09.046Z,0.63
2022-09-16T23:08:36.755Z,0.80
2022-09-16T23:11:04.262Z,0.70
2022-09-16T23:13:34.261Z,0.50
2022-09-16T23:16:02.123Z,0.80
2022-09-16T23:18:30.239Z,0.50
2022-09-16T23:21:06.965Z,0.73
2022-09-16T23:23:41.190Z,0.90
2022-09-16T23:26:11.970Z,0.80
2022-09-16T23:28:38.509Z,0.60
2022-09-16T23:31:09.132Z,0.50
2022-09-16T23:33:35.723Z,0.70
2022-09-16T23:36:02.570Z,1.23
2022-09-16T23:38:29.023Z,0.80
2022-09-16T23:40:55.754Z,0.70
2022-09-16T23:43:22.381Z,0.80
2022-09-16T23:45:49.393Z,0.90
2022-09-16T23:48:15.777Z,0.73
2022-09-16T23:50:43.548Z,1.00
2022-09-16T23:53:09.839Z,0.75
2022-09-16T23:55:40.578Z,0.60
2022-09-16T23:58:06.857Z,0.95
